Country
Station

 

Weather  for  Northolt  -  United Kingdom    United Kingdom

  
19 °C (66 °F)
    
 
 

Current METAR for Northolt is :

EGWU 192050Z AUTO 19005KT 9999 // NCD 19/10 Q1023

 

This is a report for Northolt - United Kingdom.
 
The report was made 28 minutes ago, at 20:50 UTC .
The wind was blowing at a speed of 2.6 meters per second (5.8 miles per hour) from south (190°).
 
The temperature was 19 °C (66 °F), with a dew-point at 10 °C (50 °F).
The atmospheric pressure was 1023 hPa (30.21 inHg).
The relative humidity was 55.9%.
 
The overall visibility was greater than 10 kilometers (6.2 miles).
 

 
 
 
 

Country :   A   B   C   D   E   F   G   H   I   J   K   L   M   N   O   P   Q   R   S   T   U   V   W   Y   Z

 

Site Info  |  Disclaimer  |  Credits  |  Privacy
Contact us  |  Add to favorites
© 2013-2018 METARs - All rights reserved